sensor_id;sensor_type;location;lat;lon;timestamp;P1;durP1;ratioP1;P2;durP2;ratioP2
23394;SDS011;11870;53.084;18.206;2022-11-20T00:00:11;41.97;;;17.77;;
23394;SDS011;11870;53.084;18.206;2022-11-20T00:02:57;39.83;;;17.50;;
23394;SDS011;11870;53.084;18.206;2022-11-20T00:05:23;42.75;;;18.55;;
23394;SDS011;11870;53.084;18.206;2022-11-20T00:07:50;42.75;;;16.73;;
23394;SDS011;11870;53.084;18.206;2022-11-20T00:10:16;44.70;;;17.92;;
23394;SDS011;11870;53.084;18.206;2022-11-20T00:12:42;44.42;;;18.20;;
23394;SDS011;11870;53.084;18.206;2022-11-20T00:15:08;40.63;;;17.38;;
23394;SDS011;11870;53.084;18.206;2022-11-20T00:17:35;46.75;;;18.83;;
23394;SDS011;11870;53.084;18.206;2022-11-20T00:20:01;45.40;;;19.08;;
23394;SDS011;11870;53.084;18.206;2022-11-20T00:22:27;46.85;;;18.40;;
23394;SDS011;11870;53.084;18.206;2022-11-20T00:24:53;48.92;;;19.70;;
23394;SDS011;11870;53.084;18.206;2022-11-20T00:27:19;57.45;;;20.40;;
23394;SDS011;11870;53.084;18.206;2022-11-20T00:29:45;48.95;;;19.67;;
23394;SDS011;11870;53.084;18.206;2022-11-20T00:32:11;45.85;;;19.20;;
23394;SDS011;11870;53.084;18.206;2022-11-20T00:34:36;55.33;;;20.42;;
23394;SDS011;11870;53.084;18.206;2022-11-20T00:37:02;57.80;;;21.55;;
23394;SDS011;11870;53.084;18.206;2022-11-20T00:39:28;45.55;;;18.65;;
23394;SDS011;11870;53.084;18.206;2022-11-20T00:41:54;41.50;;;17.23;;
23394;SDS011;11870;53.084;18.206;2022-11-20T00:44:20;44.63;;;18.38;;
23394;SDS011;11870;53.084;18.206;2022-11-20T00:46:46;37.63;;;16.33;;
23394;SDS011;11870;53.084;18.206;2022-11-20T00:49:11;39.08;;;16.98;;
23394;SDS011;11870;53.084;18.206;2022-11-20T00:51:37;42.47;;;17.48;;
23394;SDS011;11870;53.084;18.206;2022-11-20T00:54:03;44.38;;;18.17;;
23394;SDS011;11870;53.084;18.206;2022-11-20T00:56:29;42.85;;;17.88;;
23394;SDS011;11870;53.084;18.206;2022-11-20T00:58:55;46.95;;;18.17;;
23394;SDS011;11870;53.084;18.206;2022-11-20T01:01:25;35.35;;;15.10;;
23394;SDS011;11870;53.084;18.206;2022-11-20T01:03:52;48.25;;;17.95;;
23394;SDS011;11870;53.084;18.206;2022-11-20T01:06:27;41.45;;;17.02;;
23394;SDS011;11870;53.084;18.206;2022-11-20T01:08:54;40.05;;;16.88;;
23394;SDS011;11870;53.084;18.206;2022-11-20T01:11:26;45.90;;;17.13;;
23394;SDS011;11870;53.084;18.206;2022-11-20T01:13:57;36.35;;;17.40;;
23394;SDS011;11870;53.084;18.206;2022-11-20T01:16:25;39.13;;;16.63;;
23394;SDS011;11870;53.084;18.206;2022-11-20T01:18:55;39.17;;;15.73;;
23394;SDS011;11870;53.084;18.206;2022-11-20T01:21:27;44.28;;;17.85;;
23394;SDS011;11870;53.084;18.206;2022-11-20T01:23:55;42.72;;;16.38;;
23394;SDS011;11870;53.084;18.206;2022-11-20T01:26:22;42.63;;;17.52;;
23394;SDS011;11870;53.084;18.206;2022-11-20T01:28:50;40.42;;;17.02;;
23394;SDS011;11870;53.084;18.206;2022-11-20T01:31:17;42.05;;;16.70;;
23394;SDS011;11870;53.084;18.206;2022-11-20T01:33:44;42.00;;;18.17;;
23394;SDS011;11870;53.084;18.206;2022-11-20T01:36:12;44.40;;;17.90;;
23394;SDS011;11870;53.084;18.206;2022-11-20T01:38:38;40.38;;;16.67;;
23394;SDS011;11870;53.084;18.206;2022-11-20T01:41:04;37.58;;;17.13;;
23394;SDS011;11870;53.084;18.206;2022-11-20T01:43:31;40.60;;;16.30;;
23394;SDS011;11870;53.084;18.206;2022-11-20T01:45:58;40.22;;;16.60;;
23394;SDS011;11870;53.084;18.206;2022-11-20T01:48:25;41.92;;;17.45;;
23394;SDS011;11870;53.084;18.206;2022-11-20T01:50:55;48.35;;;19.20;;
23394;SDS011;11870;53.084;18.206;2022-11-20T01:53:24;45.10;;;18.70;;
23394;SDS011;11870;53.084;18.206;2022-11-20T01:55:55;46.75;;;18.85;;
23394;SDS011;11870;53.084;18.206;2022-11-20T01:58:25;43.92;;;19.58;;
23394;SDS011;11870;53.084;18.206;2022-11-20T02:00:55;51.15;;;20.08;;
23394;SDS011;11870;53.084;18.206;2022-11-20T02:03:21;49.58;;;19.30;;
23394;SDS011;11870;53.084;18.206;2022-11-20T02:05:49;44.30;;;18.17;;
23394;SDS011;11870;53.084;18.206;2022-11-20T02:08:50;43.85;;;16.98;;
23394;SDS011;11870;53.084;18.206;2022-11-20T02:11:17;41.92;;;18.67;;
23394;SDS011;11870;53.084;18.206;2022-11-20T02:13:44;43.30;;;17.98;;
23394;SDS011;11870;53.084;18.206;2022-11-20T02:16:11;45.90;;;18.67;;
23394;SDS011;11870;53.084;18.206;2022-11-20T02:18:44;46.08;;;18.10;;
23394;SDS011;11870;53.084;18.206;2022-11-20T02:24:02;45.50;;;17.80;;
23394;SDS011;11870;53.084;18.206;2022-11-20T02:26:35;41.17;;;17.65;;
23394;SDS011;11870;53.084;18.206;2022-11-20T02:29:09;46.70;;;18.73;;
23394;SDS011;11870;53.084;18.206;2022-11-20T02:31:40;48.88;;;19.05;;
23394;SDS011;11870;53.084;18.206;2022-11-20T02:34:07;43.25;;;17.45;;
23394;SDS011;11870;53.084;18.206;2022-11-20T02:36:35;43.53;;;17.23;;
23394;SDS011;11870;53.084;18.206;2022-11-20T02:39:03;42.55;;;16.88;;
23394;SDS011;11870;53.084;18.206;2022-11-20T02:41:31;38.85;;;17.73;;
23394;SDS011;11870;53.084;18.206;2022-11-20T02:43:58;38.35;;;16.88;;
23394;SDS011;11870;53.084;18.206;2022-11-20T02:46:24;44.78;;;18.40;;
23394;SDS011;11870;53.084;18.206;2022-11-20T02:48:49;42.78;;;17.85;;
23394;SDS011;11870;53.084;18.206;2022-11-20T02:51:15;39.45;;;17.80;;
23394;SDS011;11870;53.084;18.206;2022-11-20T02:53:41;42.45;;;17.55;;
23394;SDS011;11870;53.084;18.206;2022-11-20T02:56:07;44.38;;;17.85;;
23394;SDS011;11870;53.084;18.206;2022-11-20T02:58:33;40.15;;;17.45;;
23394;SDS011;11870;53.084;18.206;2022-11-20T03:00:59;40.55;;;17.30;;
23394;SDS011;11870;53.084;18.206;2022-11-20T03:03:25;42.05;;;17.45;;
23394;SDS011;11870;53.084;18.206;2022-11-20T03:05:51;41.95;;;18.00;;
23394;SDS011;11870;53.084;18.206;2022-11-20T03:08:16;38.33;;;16.80;;
23394;SDS011;11870;53.084;18.206;2022-11-20T03:10:42;42.40;;;17.77;;
23394;SDS011;11870;53.084;18.206;2022-11-20T03:13:08;42.25;;;17.02;;
23394;SDS011;11870;53.084;18.206;2022-11-20T03:15:35;38.50;;;16.92;;
23394;SDS011;11870;53.084;18.206;2022-11-20T03:18:02;37.95;;;17.17;;
23394;SDS011;11870;53.084;18.206;2022-11-20T03:20:28;40.83;;;17.10;;
23394;SDS011;11870;53.084;18.206;2022-11-20T03:22:54;41.50;;;17.02;;
23394;SDS011;11870;53.084;18.206;2022-11-20T03:25:21;39.85;;;16.77;;
23394;SDS011;11870;53.084;18.206;2022-11-20T03:27:47;37.70;;;16.17;;
23394;SDS011;11870;53.084;18.206;2022-11-20T03:30:13;35.75;;;16.23;;
23394;SDS011;11870;53.084;18.206;2022-11-20T03:32:40;39.22;;;15.80;;
23394;SDS011;11870;53.084;18.206;2022-11-20T03:35:06;44.33;;;16.38;;
23394;SDS011;11870;53.084;18.206;2022-11-20T03:37:32;47.92;;;17.73;;
23394;SDS011;11870;53.084;18.206;2022-11-20T03:39:58;38.38;;;16.40;;
23394;SDS011;11870;53.084;18.206;2022-11-20T03:42:24;36.42;;;16.00;;
23394;SDS011;11870;53.084;18.206;2022-11-20T03:45:09;43.28;;;17.30;;
23394;SDS011;11870;53.084;18.206;2022-11-20T03:47:34;42.53;;;16.52;;
23394;SDS011;11870;53.084;18.206;2022-11-20T03:50:01;41.47;;;16.05;;
23394;SDS011;11870;53.084;18.206;2022-11-20T03:52:27;35.20;;;15.35;;
23394;SDS011;11870;53.084;18.206;2022-11-20T03:54:53;39.17;;;15.82;;
23394;SDS011;11870;53.084;18.206;2022-11-20T03:57:18;36.90;;;15.50;;
23394;SDS011;11870;53.084;18.206;2022-11-20T03:59:44;38.88;;;16.25;;
23394;SDS011;11870;53.084;18.206;2022-11-20T04:02:10;40.38;;;16.38;;
23394;SDS011;11870;53.084;18.206;2022-11-20T04:04:36;38.45;;;16.65;;
23394;SDS011;11870;53.084;18.206;2022-11-20T04:07:02;41.42;;;16.08;;
23394;SDS011;11870;53.084;18.206;2022-11-20T04:09:29;35.92;;;14.20;;
23394;SDS011;11870;53.084;18.206;2022-11-20T04:11:55;37.75;;;15.27;;
23394;SDS011;11870;53.084;18.206;2022-11-20T04:14:21;39.35;;;15.65;;
23394;SDS011;11870;53.084;18.206;2022-11-20T04:16:47;34.83;;;15.65;;
23394;SDS011;11870;53.084;18.206;2022-11-20T04:19:14;41.50;;;16.63;;
23394;SDS011;11870;53.084;18.206;2022-11-20T04:21:41;41.60;;;16.88;;
23394;SDS011;11870;53.084;18.206;2022-11-20T04:24:08;34.83;;;15.38;;
23394;SDS011;11870;53.084;18.206;2022-11-20T04:26:35;36.80;;;15.38;;
23394;SDS011;11870;53.084;18.206;2022-11-20T04:29:02;35.15;;;15.15;;
23394;SDS011;11870;53.084;18.206;2022-11-20T04:31:29;36.30;;;15.07;;
23394;SDS011;11870;53.084;18.206;2022-11-20T04:34:04;32.25;;;14.00;;
23394;SDS011;11870;53.084;18.206;2022-11-20T04:36:31;35.60;;;15.18;;
23394;SDS011;11870;53.084;18.206;2022-11-20T04:38:58;38.30;;;14.85;;
23394;SDS011;11870;53.084;18.206;2022-11-20T04:41:27;35.67;;;15.57;;
23394;SDS011;11870;53.084;18.206;2022-11-20T04:43:56;31.85;;;14.88;;
23394;SDS011;11870;53.084;18.206;2022-11-20T04:46:29;35.90;;;14.68;;
23394;SDS011;11870;53.084;18.206;2022-11-20T04:48:59;34.55;;;14.38;;
23394;SDS011;11870;53.084;18.206;2022-11-20T04:51:26;37.83;;;14.95;;
23394;SDS011;11870;53.084;18.206;2022-11-20T04:53:53;40.22;;;16.13;;
23394;SDS011;11870;53.084;18.206;2022-11-20T04:56:19;38.63;;;15.98;;
23394;SDS011;11870;53.084;18.206;2022-11-20T04:58:45;36.72;;;15.20;;
23394;SDS011;11870;53.084;18.206;2022-11-20T05:01:12;39.58;;;16.70;;
23394;SDS011;11870;53.084;18.206;2022-11-20T05:03:41;38.83;;;16.20;;
23394;SDS011;11870;53.084;18.206;2022-11-20T05:06:08;35.95;;;14.65;;
23394;SDS011;11870;53.084;18.206;2022-11-20T05:08:35;38.25;;;14.80;;
23394;SDS011;11870;53.084;18.206;2022-11-20T05:11:04;37.67;;;14.98;;
23394;SDS011;11870;53.084;18.206;2022-11-20T05:13:36;39.50;;;16.45;;
23394;SDS011;11870;53.084;18.206;2022-11-20T05:16:12;39.78;;;16.75;;
23394;SDS011;11870;53.084;18.206;2022-11-20T05:18:43;35.30;;;15.60;;
23394;SDS011;11870;53.084;18.206;2022-11-20T05:21:09;35.33;;;15.18;;
23394;SDS011;11870;53.084;18.206;2022-11-20T05:23:36;37.55;;;16.27;;
23394;SDS011;11870;53.084;18.206;2022-11-20T05:26:03;30.75;;;14.30;;
23394;SDS011;11870;53.084;18.206;2022-11-20T05:28:30;37.30;;;15.30;;
23394;SDS011;11870;53.084;18.206;2022-11-20T05:31:03;37.55;;;15.98;;
23394;SDS011;11870;53.084;18.206;2022-11-20T05:33:36;36.72;;;15.65;;
23394;SDS011;11870;53.084;18.206;2022-11-20T05:36:04;41.60;;;16.55;;
23394;SDS011;11870;53.084;18.206;2022-11-20T05:38:31;37.67;;;15.40;;
23394;SDS011;11870;53.084;18.206;2022-11-20T05:41:04;36.65;;;14.50;;
23394;SDS011;11870;53.084;18.206;2022-11-20T05:43:32;40.35;;;15.73;;
23394;SDS011;11870;53.084;18.206;2022-11-20T05:46:02;41.47;;;16.35;;
23394;SDS011;11870;53.084;18.206;2022-11-20T05:48:30;38.20;;;15.98;;
23394;SDS011;11870;53.084;18.206;2022-11-20T05:50:57;39.17;;;16.00;;
23394;SDS011;11870;53.084;18.206;2022-11-20T05:53:24;35.30;;;16.33;;
23394;SDS011;11870;53.084;18.206;2022-11-20T05:55:57;36.22;;;16.48;;
23394;SDS011;11870;53.084;18.206;2022-11-20T05:58:28;39.45;;;16.10;;
23394;SDS011;11870;53.084;18.206;2022-11-20T06:00:54;37.92;;;16.40;;
23394;SDS011;11870;53.084;18.206;2022-11-20T06:03:28;38.42;;;17.30;;
23394;SDS011;11870;53.084;18.206;2022-11-20T06:05:53;39.28;;;15.65;;
23394;SDS011;11870;53.084;18.206;2022-11-20T06:08:20;41.85;;;17.40;;
23394;SDS011;11870;53.084;18.206;2022-11-20T06:10:45;49.03;;;20.20;;
23394;SDS011;11870;53.084;18.206;2022-11-20T06:13:11;45.28;;;18.45;;
23394;SDS011;11870;53.084;18.206;2022-11-20T06:15:37;45.00;;;19.13;;
23394;SDS011;11870;53.084;18.206;2022-11-20T06:18:03;56.80;;;21.35;;
23394;SDS011;11870;53.084;18.206;2022-11-20T06:20:29;40.05;;;16.17;;
23394;SDS011;11870;53.084;18.206;2022-11-20T06:22:55;47.55;;;17.33;;
23394;SDS011;11870;53.084;18.206;2022-11-20T06:25:21;45.53;;;18.42;;
23394;SDS011;11870;53.084;18.206;2022-11-20T06:27:47;42.78;;;19.58;;
23394;SDS011;11870;53.084;18.206;2022-11-20T06:30:12;45.05;;;19.02;;
23394;SDS011;11870;53.084;18.206;2022-11-20T06:32:39;38.10;;;16.65;;
23394;SDS011;11870;53.084;18.206;2022-11-20T06:35:05;43.38;;;17.15;;
23394;SDS011;11870;53.084;18.206;2022-11-20T06:37:31;49.25;;;18.98;;
23394;SDS011;11870;53.084;18.206;2022-11-20T06:39:57;39.45;;;16.77;;
23394;SDS011;11870;53.084;18.206;2022-11-20T06:42:23;40.17;;;17.63;;
23394;SDS011;11870;53.084;18.206;2022-11-20T06:44:48;48.55;;;18.75;;
23394;SDS011;11870;53.084;18.206;2022-11-20T06:47:14;39.30;;;16.98;;
23394;SDS011;11870;53.084;18.206;2022-11-20T06:49:40;44.78;;;18.00;;
23394;SDS011;11870;53.084;18.206;2022-11-20T06:52:06;44.28;;;16.23;;
23394;SDS011;11870;53.084;18.206;2022-11-20T06:54:32;45.63;;;19.42;;
23394;SDS011;11870;53.084;18.206;2022-11-20T06:56:58;39.65;;;16.58;;
23394;SDS011;11870;53.084;18.206;2022-11-20T06:59:24;40.90;;;16.88;;
23394;SDS011;11870;53.084;18.206;2022-11-20T07:01:50;48.63;;;18.48;;
23394;SDS011;11870;53.084;18.206;2022-11-20T07:04:16;45.20;;;17.52;;
23394;SDS011;11870;53.084;18.206;2022-11-20T07:06:41;45.00;;;18.15;;
23394;SDS011;11870;53.084;18.206;2022-11-20T07:09:07;43.50;;;17.95;;
23394;SDS011;11870;53.084;18.206;2022-11-20T07:11:33;47.03;;;19.58;;
23394;SDS011;11870;53.084;18.206;2022-11-20T07:13:59;54.55;;;22.83;;
23394;SDS011;11870;53.084;18.206;2022-11-20T07:16:25;43.55;;;18.40;;
23394;SDS011;11870;53.084;18.206;2022-11-20T07:18:51;48.88;;;20.08;;
23394;SDS011;11870;53.084;18.206;2022-11-20T07:21:17;52.20;;;20.23;;
23394;SDS011;11870;53.084;18.206;2022-11-20T07:23:43;43.10;;;18.30;;
23394;SDS011;11870;53.084;18.206;2022-11-20T07:26:10;41.33;;;17.98;;
23394;SDS011;11870;53.084;18.206;2022-11-20T07:28:36;49.30;;;19.63;;
23394;SDS011;11870;53.084;18.206;2022-11-20T07:31:03;49.72;;;20.83;;
23394;SDS011;11870;53.084;18.206;2022-11-20T07:33:30;47.58;;;19.10;;
23394;SDS011;11870;53.084;18.206;2022-11-20T07:35:57;47.83;;;19.70;;
23394;SDS011;11870;53.084;18.206;2022-11-20T07:38:24;47.05;;;18.98;;
23394;SDS011;11870;53.084;18.206;2022-11-20T07:40:53;45.95;;;19.33;;
23394;SDS011;11870;53.084;18.206;2022-11-20T07:43:20;57.08;;;19.60;;
23394;SDS011;11870;53.084;18.206;2022-11-20T07:45:46;46.55;;;19.17;;
23394;SDS011;11870;53.084;18.206;2022-11-20T07:48:12;50.63;;;19.42;;
23394;SDS011;11870;53.084;18.206;2022-11-20T07:50:38;61.55;;;24.00;;
23394;SDS011;11870;53.084;18.206;2022-11-20T07:53:04;47.95;;;20.10;;
23394;SDS011;11870;53.084;18.206;2022-11-20T07:55:30;46.42;;;19.10;;
23394;SDS011;11870;53.084;18.206;2022-11-20T07:57:56;47.10;;;18.92;;
23394;SDS011;11870;53.084;18.206;2022-11-20T08:00:22;46.33;;;19.17;;
23394;SDS011;11870;53.084;18.206;2022-11-20T08:02:49;45.92;;;17.80;;
23394;SDS011;11870;53.084;18.206;2022-11-20T08:05:15;54.00;;;19.17;;
23394;SDS011;11870;53.084;18.206;2022-11-20T08:07:41;44.92;;;19.48;;
23394;SDS011;11870;53.084;18.206;2022-11-20T08:10:10;45.60;;;19.08;;
23394;SDS011;11870;53.084;18.206;2022-11-20T08:12:44;50.08;;;19.05;;
23394;SDS011;11870;53.084;18.206;2022-11-20T08:15:30;41.83;;;17.83;;
23394;SDS011;11870;53.084;18.206;2022-11-20T08:18:13;48.28;;;21.50;;
23394;SDS011;11870;53.084;18.206;2022-11-20T08:20:39;42.90;;;17.08;;
23394;SDS011;11870;53.084;18.206;2022-11-20T08:23:06;69.20;;;24.10;;
23394;SDS011;11870;53.084;18.206;2022-11-20T08:25:33;48.90;;;20.35;;
23394;SDS011;11870;53.084;18.206;2022-11-20T08:28:01;41.50;;;18.42;;
23394;SDS011;11870;53.084;18.206;2022-11-20T08:30:32;40.60;;;16.85;;
23394;SDS011;11870;53.084;18.206;2022-11-20T08:33:02;47.35;;;18.25;;
23394;SDS011;11870;53.084;18.206;2022-11-20T08:35:36;45.42;;;18.75;;
23394;SDS011;11870;53.084;18.206;2022-11-20T08:38:03;46.08;;;18.45;;
23394;SDS011;11870;53.084;18.206;2022-11-20T08:40:31;49.80;;;20.60;;
23394;SDS011;11870;53.084;18.206;2022-11-20T08:42:57;47.22;;;21.42;;
23394;SDS011;11870;53.084;18.206;2022-11-20T08:45:23;39.35;;;17.52;;
23394;SDS011;11870;53.084;18.206;2022-11-20T08:47:49;47.80;;;19.92;;
23394;SDS011;11870;53.084;18.206;2022-11-20T08:50:16;44.67;;;18.77;;
23394;SDS011;11870;53.084;18.206;2022-11-20T08:52:42;45.97;;;18.67;;
23394;SDS011;11870;53.084;18.206;2022-11-20T08:55:09;44.75;;;19.73;;
23394;SDS011;11870;53.084;18.206;2022-11-20T08:57:35;48.97;;;20.35;;
23394;SDS011;11870;53.084;18.206;2022-11-20T09:00:03;50.45;;;20.80;;
23394;SDS011;11870;53.084;18.206;2022-11-20T09:02:30;64.22;;;27.45;;
23394;SDS011;11870;53.084;18.206;2022-11-20T09:04:57;61.83;;;24.80;;
23394;SDS011;11870;53.084;18.206;2022-11-20T09:07:23;49.17;;;20.67;;
23394;SDS011;11870;53.084;18.206;2022-11-20T09:09:49;45.50;;;19.52;;
23394;SDS011;11870;53.084;18.206;2022-11-20T09:12:15;52.20;;;21.27;;
23394;SDS011;11870;53.084;18.206;2022-11-20T09:14:41;43.80;;;19.92;;
23394;SDS011;11870;53.084;18.206;2022-11-20T09:17:07;46.42;;;21.10;;
23394;SDS011;11870;53.084;18.206;2022-11-20T09:19:34;48.28;;;20.92;;
23394;SDS011;11870;53.084;18.206;2022-11-20T09:22:00;50.08;;;21.83;;
23394;SDS011;11870;53.084;18.206;2022-11-20T09:24:26;46.28;;;20.70;;
23394;SDS011;11870;53.084;18.206;2022-11-20T09:26:53;42.80;;;19.35;;
23394;SDS011;11870;53.084;18.206;2022-11-20T09:29:19;45.03;;;20.52;;
23394;SDS011;11870;53.084;18.206;2022-11-20T09:31:44;47.45;;;21.20;;
23394;SDS011;11870;53.084;18.206;2022-11-20T09:34:10;54.78;;;21.10;;
23394;SDS011;11870;53.084;18.206;2022-11-20T09:36:36;45.85;;;19.65;;
23394;SDS011;11870;53.084;18.206;2022-11-20T09:39:02;46.55;;;20.50;;
23394;SDS011;11870;53.084;18.206;2022-11-20T09:41:35;49.55;;;21.40;;
23394;SDS011;11870;53.084;18.206;2022-11-20T09:47:07;49.60;;;20.02;;
23394;SDS011;11870;53.084;18.206;2022-11-20T09:55:27;66.75;;;27.95;;
23394;SDS011;11870;53.084;18.206;2022-11-20T09:57:55;45.85;;;21.55;;
23394;SDS011;11870;53.084;18.206;2022-11-20T10:00:24;47.72;;;19.63;;
23394;SDS011;11870;53.084;18.206;2022-11-20T10:02:58;51.58;;;20.75;;
23394;SDS011;11870;53.084;18.206;2022-11-20T10:05:44;54.90;;;20.75;;
23394;SDS011;11870;53.084;18.206;2022-11-20T10:08:21;47.22;;;19.92;;
23394;SDS011;11870;53.084;18.206;2022-11-20T10:11:13;47.33;;;20.52;;
23394;SDS011;11870;53.084;18.206;2022-11-20T10:19:30;55.90;;;22.13;;
23394;SDS011;11870;53.084;18.206;2022-11-20T10:30:26;46.75;;;20.00;;
23394;SDS011;11870;53.084;18.206;2022-11-20T10:32:58;47.60;;;20.85;;
23394;SDS011;11870;53.084;18.206;2022-11-20T10:35:38;42.85;;;19.42;;
23394;SDS011;11870;53.084;18.206;2022-11-20T10:38:14;42.67;;;18.85;;
23394;SDS011;11870;53.084;18.206;2022-11-20T10:40:54;44.22;;;18.70;;
23394;SDS011;11870;53.084;18.206;2022-11-20T10:43:43;45.20;;;18.50;;
23394;SDS011;11870;53.084;18.206;2022-11-20T10:46:15;41.17;;;19.42;;
23394;SDS011;11870;53.084;18.206;2022-11-20T10:48:44;41.63;;;19.60;;
23394;SDS011;11870;53.084;18.206;2022-11-20T10:56:42;40.97;;;18.60;;
23394;SDS011;11870;53.084;18.206;2022-11-20T11:01:54;45.05;;;18.40;;
23394;SDS011;11870;53.084;18.206;2022-11-20T11:07:06;48.53;;;19.75;;
23394;SDS011;11870;53.084;18.206;2022-11-20T11:09:54;46.22;;;20.15;;
23394;SDS011;11870;53.084;18.206;2022-11-20T11:12:22;44.03;;;20.00;;
23394;SDS011;11870;53.084;18.206;2022-11-20T11:14:51;44.63;;;19.92;;
23394;SDS011;11870;53.084;18.206;2022-11-20T11:17:23;46.00;;;20.10;;
23394;SDS011;11870;53.084;18.206;2022-11-20T11:20:05;46.35;;;20.88;;
23394;SDS011;11870;53.084;18.206;2022-11-20T11:22:43;41.17;;;17.48;;
23394;SDS011;11870;53.084;18.206;2022-11-20T11:25:18;47.05;;;20.20;;
23394;SDS011;11870;53.084;18.206;2022-11-20T11:27:46;41.33;;;19.08;;
23394;SDS011;11870;53.084;18.206;2022-11-20T11:30:14;45.22;;;18.52;;
23394;SDS011;11870;53.084;18.206;2022-11-20T11:32:42;49.08;;;20.65;;
23394;SDS011;11870;53.084;18.206;2022-11-20T11:37:47;41.85;;;19.73;;
23394;SDS011;11870;53.084;18.206;2022-11-20T11:40:15;45.33;;;19.05;;
23394;SDS011;11870;53.084;18.206;2022-11-20T11:43:04;46.20;;;20.85;;
23394;SDS011;11870;53.084;18.206;2022-11-20T11:45:53;46.90;;;20.02;;
23394;SDS011;11870;53.084;18.206;2022-11-20T11:48:20;46.13;;;20.40;;
23394;SDS011;11870;53.084;18.206;2022-11-20T11:50:50;45.33;;;19.55;;
23394;SDS011;11870;53.084;18.206;2022-11-20T11:53:17;47.47;;;20.50;;
23394;SDS011;11870;53.084;18.206;2022-11-20T11:55:50;46.67;;;20.38;;
23394;SDS011;11870;53.084;18.206;2022-11-20T12:04:12;48.28;;;19.27;;
23394;SDS011;11870;53.084;18.206;2022-11-20T12:06:39;45.22;;;19.27;;
23394;SDS011;11870;53.084;18.206;2022-11-20T12:09:10;47.90;;;19.00;;
23394;SDS011;11870;53.084;18.206;2022-11-20T12:11:45;43.83;;;19.67;;
23394;SDS011;11870;53.084;18.206;2022-11-20T12:14:17;45.97;;;20.38;;
23394;SDS011;11870;53.084;18.206;2022-11-20T12:16:56;40.85;;;18.67;;
23394;SDS011;11870;53.084;18.206;2022-11-20T12:19:22;44.03;;;18.77;;
23394;SDS011;11870;53.084;18.206;2022-11-20T12:21:54;41.42;;;19.02;;
23394;SDS011;11870;53.084;18.206;2022-11-20T12:24:52;39.60;;;17.98;;
23394;SDS011;11870;53.084;18.206;2022-11-20T12:30:16;46.67;;;20.40;;
23394;SDS011;11870;53.084;18.206;2022-11-20T12:32:56;43.10;;;19.40;;
23394;SDS011;11870;53.084;18.206;2022-11-20T12:35:36;53.22;;;22.63;;
23394;SDS011;11870;53.084;18.206;2022-11-20T12:43:37;44.15;;;20.23;;
23394;SDS011;11870;53.084;18.206;2022-11-20T12:46:37;40.22;;;17.98;;
23394;SDS011;11870;53.084;18.206;2022-11-20T12:54:45;47.22;;;19.55;;
23394;SDS011;11870;53.084;18.206;2022-11-20T12:57:18;43.80;;;17.92;;
23394;SDS011;11870;53.084;18.206;2022-11-20T13:00:12;42.10;;;19.30;;
23394;SDS011;11870;53.084;18.206;2022-11-20T13:08:32;45.00;;;19.85;;
23394;SDS011;11870;53.084;18.206;2022-11-20T13:11:03;42.75;;;19.67;;
23394;SDS011;11870;53.084;18.206;2022-11-20T13:19:52;41.15;;;18.85;;
23394;SDS011;11870;53.084;18.206;2022-11-20T13:22:26;40.17;;;18.05;;
23394;SDS011;11870;53.084;18.206;2022-11-20T13:24:53;42.15;;;18.63;;
23394;SDS011;11870;53.084;18.206;2022-11-20T13:27:23;38.60;;;16.90;;
23394;SDS011;11870;53.084;18.206;2022-11-20T13:32:53;39.90;;;16.40;;
23394;SDS011;11870;53.084;18.206;2022-11-20T13:38:05;35.58;;;16.48;;
23394;SDS011;11870;53.084;18.206;2022-11-20T13:40:32;34.55;;;15.80;;
23394;SDS011;11870;53.084;18.206;2022-11-20T13:43:07;37.28;;;17.02;;
23394;SDS011;11870;53.084;18.206;2022-11-20T13:46:02;37.85;;;16.50;;
23394;SDS011;11870;53.084;18.206;2022-11-20T13:48:40;35.10;;;15.80;;
23394;SDS011;11870;53.084;18.206;2022-11-20T13:53:53;41.40;;;16.58;;
23394;SDS011;11870;53.084;18.206;2022-11-20T13:56:40;33.50;;;15.70;;
23394;SDS011;11870;53.084;18.206;2022-11-20T14:02:15;56.90;;;20.38;;
23394;SDS011;11870;53.084;18.206;2022-11-20T14:04:51;37.85;;;17.20;;
23394;SDS011;11870;53.084;18.206;2022-11-20T14:07:20;35.38;;;15.48;;
23394;SDS011;11870;53.084;18.206;2022-11-20T14:09:50;39.75;;;16.42;;
23394;SDS011;11870;53.084;18.206;2022-11-20T14:12:19;31.00;;;15.02;;
23394;SDS011;11870;53.084;18.206;2022-11-20T14:14:54;35.90;;;15.68;;
23394;SDS011;11870;53.084;18.206;2022-11-20T14:17:21;34.20;;;15.35;;
23394;SDS011;11870;53.084;18.206;2022-11-20T14:19:53;35.67;;;15.25;;
23394;SDS011;11870;53.084;18.206;2022-11-20T14:22:24;32.58;;;15.50;;
23394;SDS011;11870;53.084;18.206;2022-11-20T14:27:32;36.38;;;15.82;;
23394;SDS011;11870;53.084;18.206;2022-11-20T14:30:01;34.80;;;15.68;;
23394;SDS011;11870;53.084;18.206;2022-11-20T14:32:29;33.30;;;15.10;;
23394;SDS011;11870;53.084;18.206;2022-11-20T14:34:58;41.45;;;17.48;;
23394;SDS011;11870;53.084;18.206;2022-11-20T14:37:33;40.70;;;17.67;;
23394;SDS011;11870;53.084;18.206;2022-11-20T14:40:01;36.55;;;16.88;;
23394;SDS011;11870;53.084;18.206;2022-11-20T14:42:28;39.97;;;17.52;;
23394;SDS011;11870;53.084;18.206;2022-11-20T14:44:56;45.90;;;19.23;;
23394;SDS011;11870;53.084;18.206;2022-11-20T14:47:29;37.75;;;16.20;;
23394;SDS011;11870;53.084;18.206;2022-11-20T14:49:56;37.65;;;17.13;;
23394;SDS011;11870;53.084;18.206;2022-11-20T14:52:25;38.38;;;16.25;;
23394;SDS011;11870;53.084;18.206;2022-11-20T14:54:56;44.03;;;17.58;;
23394;SDS011;11870;53.084;18.206;2022-11-20T14:57:30;40.25;;;16.90;;
23394;SDS011;11870;53.084;18.206;2022-11-20T15:02:30;42.33;;;17.67;;
23394;SDS011;11870;53.084;18.206;2022-11-20T15:04:57;38.00;;;16.92;;
23394;SDS011;11870;53.084;18.206;2022-11-20T15:07:25;44.47;;;17.55;;
23394;SDS011;11870;53.084;18.206;2022-11-20T15:10:06;45.92;;;18.67;;
23394;SDS011;11870;53.084;18.206;2022-11-20T15:12:35;45.50;;;19.10;;
23394;SDS011;11870;53.084;18.206;2022-11-20T15:15:05;45.97;;;19.40;;
23394;SDS011;11870;53.084;18.206;2022-11-20T15:17:32;40.90;;;17.63;;
23394;SDS011;11870;53.084;18.206;2022-11-20T15:20:00;40.85;;;17.20;;
23394;SDS011;11870;53.084;18.206;2022-11-20T15:22:28;44.60;;;18.17;;
23394;SDS011;11870;53.084;18.206;2022-11-20T15:24:54;42.65;;;18.15;;
23394;SDS011;11870;53.084;18.206;2022-11-20T15:27:20;43.03;;;18.30;;
23394;SDS011;11870;53.084;18.206;2022-11-20T15:29:46;45.70;;;18.40;;
23394;SDS011;11870;53.084;18.206;2022-11-20T15:32:11;38.65;;;17.45;;
23394;SDS011;11870;53.084;18.206;2022-11-20T15:34:37;46.67;;;18.88;;
23394;SDS011;11870;53.084;18.206;2022-11-20T15:37:03;45.75;;;19.98;;
23394;SDS011;11870;53.084;18.206;2022-11-20T15:39:29;70.50;;;33.67;;
23394;SDS011;11870;53.084;18.206;2022-11-20T15:41:55;55.53;;;27.05;;
23394;SDS011;11870;53.084;18.206;2022-11-20T15:44:21;44.33;;;19.75;;
23394;SDS011;11870;53.084;18.206;2022-11-20T15:46:47;53.50;;;23.77;;